NCAR-RAP Real-Time Weather Data

Output produced by METARs form (06 May 2021  17:07 UTC)
found at http://weather.rap.ucar.edu/surface/
 
KHJO 061653Z AUTO 32013KT 10SM CLR 26/01 A2998 RMK AO2 SLP153 T02610011
KHJO 061553Z AUTO 31010KT 10SM CLR 23/03 A2998 RMK AO2 SLP152 T02280033
KHJO 061453Z AUTO 32005KT 10SM CLR 20/08 A2997 RMK AO2 SLP148 T02000078 52015
KHJO 061353Z AUTO 31006KT 10SM CLR 18/08 A2996 RMK AO2 SLP143 T01830083
KHJO 061253Z AUTO 31006KT 10SM CLR 18/08 A2994 RMK AO2 SLP138 T01830078
KHJO 061153Z AUTO 28006KT 10SM CLR 19/08 A2993 RMK AO2 SLP133 T01890078 10250 20178 53004
KHJO 061053Z AUTO 31007KT 10SM CLR 22/08 A2991 RMK AO2 SLP130 T02220083
KHJO 060953Z AUTO 28005KT 10SM CLR 18/12 A2991 RMK AO2 SLP127 T01780117
KHJO 060853Z AUTO 00000KT 10SM CLR 19/12 A2991 RMK AO2 SLP129 T01890117 51003
KHJO 060753Z AUTO 34004KT 10SM CLR 24/09 A2991 RMK AO2 SLP128 T02390089 403610128
KHJO 060653Z AUTO 35005KT 10SM CLR 24/11 A2991 RMK AO2 SLP128 T02390106
KHJO 060553Z AUTO 34005KT 10SM CLR 24/08 A2991 RMK AO2 SLP126 T02440083 10350 20228 51028
KHJO 060453Z AUTO 23004KT 10SM CLR 26/08 A2988 RMK AO2 SLP118 T02610083